Vilas, South Dakota
Current Conditions -  °F | °C
As of 10:55 AM on Thursday 30 Oct 2014 (Local Time) from KMDS Reporting Station
Scattered Clouds Scattered Clouds  
Wind Chill: 40°   Ceiling: Unl
Heat Index: 46°   Visibility: 10mi
Dew Point: 41°   Wind: 15mph
Humidity: 81%   Direction: 350°N
Pressure: 30.1"   Gusts: 22mph
Location:  44.0529°N, 97.5161°W
Report Text: KMDS 301555Z AUTO 35013G19KT 10SM SCT019 08/05 A3010 RMK AO2
Loading
Personal Weather Stations






























Interactive Weather Map
Tropical Storm Tracking
New forecast layout! Learn more

10-Day Weather Forecast

Advertisements
Track Severe Weather on mobile